Time;durP1;ratioP1;P1;durP2;ratioP2;P2;SDS_P1;SDS_P2;PMS_P1;PMS_P2;Temp;Humidity;BMP_temperature;BMP_pressure;BME280_temperature;BME280_humidity;BME280_pressure;Samples;Min_cycle;Max_cycle;Signal;HPM_P1;HPM_P2
2022/03/25 00:01:29;;;;;;;;;;;16.80;34.60;;;;;;5087897;28;42889;-73
2022/03/25 00:03:57;;;;;;;;;;;16.80;35.20;;;;;;5089090;28;42812;-75
2022/03/25 00:06:23;;;;;;;;;;;16.70;34.70;;;;;;5089232;28;42900;-74
2022/03/25 00:08:49;;;;;;;;;;;16.80;34.80;;;;;;5070117;28;44776;-76
2022/03/25 00:11:14;;;;;;;;;;;16.70;34.80;;;;;;5088599;28;42903;-74
2022/03/25 00:13:40;;;;;;;;;;;16.90;35.00;;;;;;5069841;28;44729;-75
2022/03/25 00:16:06;;;;;;;;;;;16.90;35.20;;;;;;5088427;28;43051;-72
2022/03/25 00:18:32;;;;;;;;;;;16.70;34.90;;;;;;5088265;28;43305;-79
2022/03/25 00:20:57;;;;;;;;;;;16.70;35.50;;;;;;5069343;28;43008;-72
2022/03/25 00:23:23;;;;;;;;;;;16.70;35.00;;;;;;5087106;28;42954;-73
2022/03/25 00:25:48;;;;;;;;;;;16.80;35.60;;;;;;5088079;28;42793;-73
2022/03/25 00:28:14;;;;;;;;;;;16.80;35.10;;;;;;5069759;28;44579;-73
2022/03/25 00:30:40;;;;;;;;;;;16.60;35.00;;;;;;5088316;28;42994;-72
2022/03/25 00:33:06;;;;;;;;;;;16.70;35.60;;;;;;5087573;28;43906;-73
2022/03/25 00:35:31;;;;;;;;;;;16.50;35.60;;;;;;5088670;28;43125;-73
2022/03/25 00:37:58;;;;;;;;;;;16.70;35.30;;;;;;5069967;28;43637;-75
2022/03/25 00:40:23;;;;;;;;;;;16.50;35.20;;;;;;5070200;28;42961;-73
2022/03/25 00:42:49;;;;;;;;;;;16.60;35.80;;;;;;5087835;28;44265;-73
2022/03/25 00:45:14;;;;;;;;;;;16.60;35.30;;;;;;5087726;28;42893;-73
2022/03/25 00:47:40;;;;;;;;;;;16.60;35.40;;;;;;5087765;28;42937;-73
2022/03/25 00:50:06;;;;;;;;;;;16.70;35.50;;;;;;5087948;28;43027;-73
2022/03/25 00:52:31;;;;;;;;;;;16.70;35.50;;;;;;5088094;28;43548;-73
2022/03/25 00:54:57;;;;;;;;;;;17.50;35.90;;;;;;5087669;28;43699;-71
2022/03/25 00:57:23;;;;;;;;;;;16.70;36.00;;;;;;5087334;28;43578;-72
2022/03/25 00:59:48;;;;;;;;;;;16.60;35.50;;;;;;5087585;28;42858;-72
2022/03/25 01:02:14;;;;;;;;;;;16.40;35.40;;;;;;5087082;28;42907;-72
2022/03/25 01:04:39;;;;;;;;;;;16.70;35.70;;;;;;5087344;28;42846;-72
2022/03/25 01:07:05;;;;;;;;;;;16.50;35.50;;;;;;5087935;28;42908;-72
2022/03/25 01:09:30;;;;;;;;;;;16.50;35.60;;;;;;5087693;28;42754;-72
2022/03/25 01:11:56;;;;;;;;;;;16.40;35.90;;;;;;5087293;27;42774;-73
2022/03/25 01:14:22;;;;;;;;;;;16.50;35.80;;;;;;5087617;28;42967;-73
2022/03/25 01:16:48;;;;;;;;;;;16.50;35.80;;;;;;5068446;28;44884;-73
2022/03/25 01:19:14;;;;;;;;;;;16.60;35.90;;;;;;5087437;28;42931;-72
2022/03/25 01:21:40;;;;;;;;;;;16.50;34.00;;;;;;5087368;28;44707;-73
2022/03/25 01:24:06;;;;;;;;;;;16.50;36.30;;;;;;5087387;28;43019;-72
2022/03/25 01:26:31;;;;;;;;;;;16.40;36.20;;;;;;5087264;28;43514;-73
2022/03/25 01:28:57;;;;;;;;;;;16.50;36.20;;;;;;5087427;28;42983;-72
2022/03/25 01:31:22;;;;;;;;;;;16.50;36.30;;;;;;5092030;28;42956;-73
2022/03/25 01:33:48;;;;;;;;;;;16.50;36.10;;;;;;5089770;28;42886;-73
2022/03/25 01:36:14;;;;;;;;;;;16.40;36.60;;;;;;5086025;28;42962;-73
2022/03/25 01:38:39;;;;;;;;;;;16.50;36.60;;;;;;5086194;28;42952;-73
2022/03/25 01:41:05;;;;;;;;;;;16.60;36.00;;;;;;5086349;28;42997;-72
2022/03/25 01:43:31;;;;;;;;;;;16.50;36.20;;;;;;5086719;28;42827;-72
2022/03/25 01:45:56;;;;;;;;;;;;;;;;;;5086961;28;42937;-73
2022/03/25 01:48:22;;;;;;;;;;;16.40;34.30;;;;;;5081511;28;43024;-72
2022/03/25 01:50:48;;;;;;;;;;;16.30;36.70;;;;;;5064567;28;42941;-72
2022/03/25 01:53:17;;;;;;;;;;;16.40;36.30;;;;;;5065700;28;43024;-72
2022/03/25 01:55:47;;;;;;;;;;;16.40;36.40;;;;;;5066941;28;43061;-72
2022/03/25 01:58:13;;;;;;;;;;;16.40;36.90;;;;;;5066320;28;42903;-72
2022/03/25 02:00:39;;;;;;;;;;;16.40;36.40;;;;;;5066183;28;42779;-71
2022/03/25 02:03:04;;;;;;;;;;;16.30;36.70;;;;;;5066076;28;42916;-72
2022/03/25 02:05:30;;;;;;;;;;;16.30;36.20;;;;;;5065628;28;42926;-73
2022/03/25 02:07:55;;;;;;;;;;;16.40;36.40;;;;;;5066083;28;42926;-72
2022/03/25 02:10:22;;;;;;;;;;;16.40;36.30;;;;;;5066361;28;43321;-73
2022/03/25 02:12:47;;;;;;;;;;;16.20;36.50;;;;;;5066491;28;42927;-72
2022/03/25 02:15:13;;;;;;;;;;;16.40;36.40;;;;;;5066114;28;43678;-72
2022/03/25 02:17:38;;;;;;;;;;;16.40;36.90;;;;;;5066064;28;42930;-73
2022/03/25 02:20:08;;;;;;;;;;;16.40;36.90;;;;;;5065955;28;43548;-72
2022/03/25 02:22:37;;;;;;;;;;;16.20;36.10;;;;;;5065596;28;43027;-73
2022/03/25 02:25:06;;;;;;;;;;;16.30;36.50;;;;;;5065763;28;43728;-73
2022/03/25 02:27:32;;;;;;;;;;;16.20;36.40;;;;;;5065794;28;43015;-72
2022/03/25 02:29:58;;;;;;;;;;;16.20;36.50;;;;;;5065727;28;43401;-72
2022/03/25 02:32:23;;;;;;;;;;;16.30;36.60;;;;;;5065639;28;43067;-73
2022/03/25 02:34:49;;;;;;;;;;;16.00;36.70;;;;;;5065949;28;43002;-72
2022/03/25 02:37:14;;;;;;;;;;;16.10;36.50;;;;;;5065684;28;42841;-73
2022/03/25 02:39:40;;;;;;;;;;;16.20;37.00;;;;;;5064787;28;43110;-73
2022/03/25 02:42:05;;;;;;;;;;;16.20;36.70;;;;;;5065122;28;42867;-72
2022/03/25 02:44:31;;;;;;;;;;;16.30;36.70;;;;;;5065713;28;43330;-73
2022/03/25 02:46:56;;;;;;;;;;;16.20;36.60;;;;;;5065761;28;43028;-73
2022/03/25 02:49:22;;;;;;;;;;;16.20;36.70;;;;;;5065943;28;42925;-72
2022/03/25 02:51:47;;;;;;;;;;;16.10;36.80;;;;;;5065545;28;42919;-74
2022/03/25 02:54:13;;;;;;;;;;;16.10;36.80;;;;;;5065414;28;43147;-72
2022/03/25 02:56:38;;;;;;;;;;;16.20;36.90;;;;;;5065017;28;43028;-74
2022/03/25 02:59:04;;;;;;;;;;;16.00;36.80;;;;;;5064750;28;43539;-73
2022/03/25 03:01:30;;;;;;;;;;;16.10;36.90;;;;;;5064585;28;42985;-72
2022/03/25 03:03:55;;;;;;;;;;;16.30;37.00;;;;;;5064596;28;42981;-73
2022/03/25 03:06:21;;;;;;;;;;;16.10;37.80;;;;;;5065504;28;43206;-74
2022/03/25 03:08:46;;;;;;;;;;;16.00;37.30;;;;;;5065381;28;42853;-74
2022/03/25 03:11:13;;;;;;;;;;;16.20;37.00;;;;;;5047165;28;43008;-72
2022/03/25 03:13:39;;;;;;;;;;;16.00;36.80;;;;;;5064968;28;43585;-74
2022/03/25 03:16:04;;;;;;;;;;;16.20;37.00;;;;;;5064676;28;42870;-72
2022/03/25 03:18:30;;;;;;;;;;;16.20;36.90;;;;;;5063475;28;43617;-72
2022/03/25 03:20:56;;;;;;;;;;;16.20;36.90;;;;;;5065051;28;42965;-72
2022/03/25 03:23:21;;;;;;;;;;;16.20;36.80;;;;;;5046764;28;44794;-72
2022/03/25 03:25:47;;;;;;;;;;;16.00;36.90;;;;;;5065287;28;43359;-73
2022/03/25 03:28:13;;;;;;;;;;;16.20;37.20;;;;;;5065109;28;43732;-73
2022/03/25 03:30:38;;;;;;;;;;;16.10;37.10;;;;;;5064961;28;42938;-74
2022/03/25 03:33:08;;;;;;;;;;;16.00;37.10;;;;;;5064521;28;42832;-72
2022/03/25 03:35:34;;;;;;;;;;;16.20;37.50;;;;;;5064737;28;42891;-73
2022/03/25 03:38:00;;;;;;;;;;;16.30;37.20;;;;;;5065142;28;43326;-73
2022/03/25 03:40:25;;;;;;;;;;;16.10;37.10;;;;;;5064936;28;42972;-73
2022/03/25 03:42:51;;;;;;;;;;;15.90;37.10;;;;;;5064648;28;43891;-72
2022/03/25 03:45:17;;;;;;;;;;;16.00;37.50;;;;;;5064839;28;42930;-74
2022/03/25 03:47:43;;;;;;;;;;;15.90;36.80;;;;;;5064991;28;43573;-71
2022/03/25 03:50:11;;;;;;;;;;;15.80;36.80;;;;;;5064898;28;42855;-73
2022/03/25 03:52:37;;;;;;;;;;;16.10;37.30;;;;;;5064279;28;43531;-72
2022/03/25 03:55:04;;;;;;;;;;;16.00;37.40;;;;;;5064499;28;42906;-72
2022/03/25 03:57:29;;;;;;;;;;;15.90;37.20;;;;;;5063815;28;44535;-72
2022/03/25 03:59:55;;;;;;;;;;;15.90;37.00;;;;;;5064050;28;43036;-73
2022/03/25 04:02:21;;;;;;;;;;;15.90;36.80;;;;;;5064046;28;44205;-73
2022/03/25 04:04:47;;;;;;;;;;;16.00;36.70;;;;;;5064420;28;42971;-73
2022/03/25 04:07:12;;;;;;;;;;;16.20;36.90;;;;;;5064450;28;42914;-72
2022/03/25 04:09:39;;;;;;;;;;;15.90;36.90;;;;;;5064338;28;43592;-72
2022/03/25 04:12:05;;;;;;;;;;;15.90;36.90;;;;;;5064738;28;43311;-72
2022/03/25 04:14:30;;;;;;;;;;;15.80;37.00;;;;;;5066444;28;42823;-73
2022/03/25 04:16:56;;;;;;;;;;;15.90;37.30;;;;;;5084629;28;42897;-72
2022/03/25 04:19:21;;;;;;;;;;;16.00;37.60;;;;;;5086034;28;43002;-73
2022/03/25 04:21:47;;;;;;;;;;;15.80;37.10;;;;;;5084714;28;42760;-73
2022/03/25 04:24:12;;;;;;;;;;;16.00;37.20;;;;;;5085019;28;42844;-73
2022/03/25 04:26:38;;;;;;;;;;;15.90;36.70;;;;;;5084644;28;42789;-73
2022/03/25 04:29:03;;;;;;;;;;;15.80;36.40;;;;;;5084722;28;42871;-72
2022/03/25 04:31:29;;;;;;;;;;;15.80;36.80;;;;;;5083038;28;42967;-73
2022/03/25 04:33:54;;;;;;;;;;;15.70;37.00;;;;;;5084035;28;43685;-73
2022/03/25 04:36:20;;;;;;;;;;;15.90;36.70;;;;;;5084000;28;43336;-72
2022/03/25 04:38:46;;;;;;;;;;;15.90;36.70;;;;;;5083736;28;43618;-72
2022/03/25 04:41:11;;;;;;;;;;;15.90;36.70;;;;;;5083817;28;43639;-73
2022/03/25 04:43:37;;;;;;;;;;;15.30;36.60;;;;;;5084030;28;42941;-72
2022/03/25 04:46:03;;;;;;;;;;;15.80;36.70;;;;;;5084133;28;43344;-78
2022/03/25 04:48:29;;;;;;;;;;;15.80;37.10;;;;;;5087619;28;43126;-72
2022/03/25 04:50:54;;;;;;;;;;;15.70;36.60;;;;;;5087887;28;43589;-73
2022/03/25 04:53:20;;;;;;;;;;;15.70;37.20;;;;;;5087952;28;42831;-73
2022/03/25 04:55:45;;;;;;;;;;;15.80;36.70;;;;;;5087270;28;43683;-73
2022/03/25 04:58:11;;;;;;;;;;;15.70;36.70;;;;;;5087298;28;42894;-73
2022/03/25 05:00:37;;;;;;;;;;;15.60;36.60;;;;;;5086921;28;43416;-72
2022/03/25 05:03:03;;;;;;;;;;;15.80;36.90;;;;;;5087336;28;42964;-73
2022/03/25 05:05:30;;;;;;;;;;;15.70;37.40;;;;;;5086369;28;42904;-72
2022/03/25 05:07:55;;;;;;;;;;;15.70;37.00;;;;;;5087350;28;43003;-74
2022/03/25 05:10:21;;;;;;;;;;;18.90;39.10;;;;;;5087318;28;43345;-74
2022/03/25 05:12:47;;;;;;;;;;;15.80;37.00;;;;;;5087584;28;42989;-72
2022/03/25 05:15:12;;;;;;;;;;;15.70;37.00;;;;;;5085641;28;43442;-77
2022/03/25 05:17:45;;;;;;;;;;;15.70;37.10;;;;;;5084373;28;43193;-78
2022/03/25 05:20:11;;;;;;;;;;;15.80;37.10;;;;;;5084952;28;43073;-74
2022/03/25 05:22:36;;;;;;;;;;;15.80;36.70;;;;;;5086323;28;43009;-74
2022/03/25 05:25:06;;;;;;;;;;;15.70;37.10;;;;;;5085959;28;43603;-73
2022/03/25 05:27:42;;;;;;;;;;;15.70;37.20;;;;;;5078101;28;43033;-74
2022/03/25 05:30:09;;;;;;;;;;;17.60;38.10;;;;;;5084948;28;43123;-75
2022/03/25 05:32:34;;;;;;;;;;;16.00;36.80;;;;;;5085773;28;43007;-75
2022/03/25 05:35:00;;;;;;;;;;;15.40;35.60;;;;;;5083599;28;43679;-75
2022/03/25 05:37:26;;;;;;;;;;;15.40;35.60;;;;;;5085273;28;43052;-73
2022/03/25 05:39:51;;;;;;;;;;;15.20;35.70;;;;;;5082433;28;43797;-73
2022/03/25 05:42:17;;;;;;;;;;;15.00;36.30;;;;;;5082953;28;43059;-73
2022/03/25 05:44:42;;;;;;;;;;;15.40;35.90;;;;;;5084903;28;43597;-73
2022/03/25 05:47:08;;;;;;;;;;;15.40;36.00;;;;;;5086211;28;43263;-74
2022/03/25 05:49:34;;;;;;;;;;;15.50;35.50;;;;;;5084461;28;43028;-74
2022/03/25 05:51:59;;;;;;;;;;;15.40;35.40;;;;;;5085561;28;43053;-74
2022/03/25 05:54:25;;;;;;;;;;;15.30;35.30;;;;;;5085589;28;43396;-74
2022/03/25 05:56:50;;;;;;;;;;;15.20;35.20;;;;;;5086132;27;42913;-73
2022/03/25 05:59:16;;;;;;;;;;;15.30;35.50;;;;;;5083517;28;43641;-74
2022/03/25 06:01:42;;;;;;;;;;;15.20;35.60;;;;;;5083751;28;42991;-73
2022/03/25 06:04:07;;;;;;;;;;;15.50;35.90;;;;;;5084223;28;43653;-75
2022/03/25 06:06:33;;;;;;;;;;;15.40;35.60;;;;;;5085375;28;42988;-74
2022/03/25 06:08:58;;;;;;;;;;;15.30;35.90;;;;;;5086005;28;42984;-73
2022/03/25 06:11:24;;;;;;;;;;;15.40;35.90;;;;;;5085672;28;42968;-73
2022/03/25 06:13:50;;;;;;;;;;;15.40;36.10;;;;;;5083717;28;43569;-76
2022/03/25 06:16:17;;;;;;;;;;;15.40;36.40;;;;;;5085198;28;42910;-75
2022/03/25 06:18:42;;;;;;;;;;;15.50;36.20;;;;;;5083754;28;44450;-74
2022/03/25 06:21:08;;;;;;;;;;;15.50;36.20;;;;;;5085548;28;43028;-73
2022/03/25 06:23:33;;;;;;;;;;;15.80;36.10;;;;;;5085544;28;43593;-72
2022/03/25 06:25:59;;;;;;;;;;;15.60;36.00;;;;;;5064776;28;42797;-78
2022/03/25 06:28:25;;;;;;;;;;;15.60;35.60;;;;;;5081565;28;44519;-73
2022/03/25 06:30:51;;;;;;;;;;;15.60;35.70;;;;;;5085193;28;42848;-74
2022/03/25 06:33:16;;;;;;;;;;;15.60;35.80;;;;;;5085845;28;43863;-73
2022/03/25 06:35:44;;;;;;;;;;;15.70;35.90;;;;;;5085552;28;43158;-80
2022/03/25 06:38:10;;;;;;;;;;;15.80;35.80;;;;;;5085853;28;44690;-74
2022/03/25 06:40:35;;;;;;;;;;;15.90;35.70;;;;;;5086087;28;42987;-75
2022/03/25 06:43:01;;;;;;;;;;;15.80;36.10;;;;;;5085521;28;43479;-74
2022/03/25 06:45:27;;;;;;;;;;;15.90;35.80;;;;;;5085813;28;42824;-74
2022/03/25 06:47:52;;;;;;;;;;;15.90;35.90;;;;;;5084954;28;42856;-81
2022/03/25 06:50:18;;;;;;;;;;;16.10;36.10;;;;;;5085507;28;43064;-74
2022/03/25 06:52:45;;;;;;;;;;;16.10;36.30;;;;;;5085765;28;42756;-72
2022/03/25 06:55:11;;;;;;;;;;;16.10;36.40;;;;;;5085933;28;42758;-75
2022/03/25 06:57:37;;;;;;;;;;;16.20;36.50;;;;;;5085503;28;44606;-80
2022/03/25 07:00:04;;;;;;;;;;;16.00;36.50;;;;;;5085859;28;42901;-74
2022/03/25 07:02:30;;;;;;;;;;;16.00;36.50;;;;;;5085582;28;43049;-78
2022/03/25 07:04:55;;;;;;;;;;;16.20;36.20;;;;;;5085980;28;42964;-74
2022/03/25 07:07:25;;;;;;;;;;;16.30;36.40;;;;;;5085323;28;43982;-78
2022/03/25 07:09:51;;;;;;;;;;;16.30;36.40;;;;;;5084603;28;43000;-76
2022/03/25 07:12:17;;;;;;;;;;;16.30;36.60;;;;;;5084968;28;42919;-80
2022/03/25 07:14:43;;;;;;;;;;;16.30;36.40;;;;;;5086126;28;43047;-76
2022/03/25 07:17:09;;;;;;;;;;;16.50;36.20;;;;;;5085335;28;42886;-78
2022/03/25 07:19:34;;;;;;;;;;;16.30;35.90;;;;;;5067257;28;43008;-74
2022/03/25 07:22:00;;;;;;;;;;;16.50;36.70;;;;;;5085394;28;43333;-76
2022/03/25 07:24:25;;;;;;;;;;;16.40;36.00;;;;;;5085643;28;42811;-73
2022/03/25 07:26:51;;;;;;;;;;;16.40;36.00;;;;;;5085460;28;42947;-83
2022/03/25 07:29:16;;;;;;;;;;;16.50;36.00;;;;;;5084874;28;43232;-74
2022/03/25 07:31:43;;;;;;;;;;;16.20;35.80;;;;;;5085571;28;43007;-73
2022/03/25 07:34:08;;;;;;;;;;;16.40;35.90;;;;;;5085143;28;42929;-74
2022/03/25 07:36:35;;;;;;;;;;;16.60;36.40;;;;;;5084742;28;43611;-79
2022/03/25 07:39:01;;;;;;;;;;;16.60;36.00;;;;;;5084690;28;42813;-74
2022/03/25 07:41:28;;;;;;;;;;;16.60;36.50;;;;;;5084482;28;43518;-75
2022/03/25 07:43:53;;;;;;;;;;;16.80;35.90;;;;;;5085497;28;42814;-75
2022/03/25 07:46:19;;;;;;;;;;;16.70;36.00;;;;;;5084820;28;42903;-75
2022/03/25 07:48:45;;;;;;;;;;;16.60;35.50;;;;;;5085366;28;42969;-74
2022/03/25 07:51:11;;;;;;;;;;;16.60;35.40;;;;;;5085152;28;42857;-75
2022/03/25 07:53:37;;;;;;;;;;;16.70;35.40;;;;;;5085280;28;42916;-77
2022/03/25 07:56:02;;;;;;;;;;;16.60;35.40;;;;;;5085088;28;42875;-80
2022/03/25 07:58:28;;;;;;;;;;;16.70;35.50;;;;;;5084553;28;43013;-76
2022/03/25 08:00:54;;;;;;;;;;;16.90;35.20;;;;;;5084432;28;42929;-81
2022/03/25 08:03:19;;;;;;;;;;;17.00;35.50;;;;;;5066111;28;42885;-76
2022/03/25 08:05:47;;;;;;;;;;;16.80;34.30;;;;;;5083727;28;43091;-74
2022/03/25 08:08:13;;;;;;;;;;;16.80;34.80;;;;;;5084271;28;42932;-73
2022/03/25 08:10:39;;;;;;;;;;;16.90;34.20;;;;;;5084233;28;43636;-73
2022/03/25 08:13:05;;;;;;;;;;;16.80;34.20;;;;;;5084546;28;42894;-73
2022/03/25 08:15:32;;;;;;;;;;;16.90;34.80;;;;;;5084127;28;43263;-77
2022/03/25 08:18:00;;;;;;;;;;;16.90;34.20;;;;;;5084549;28;42993;-73
2022/03/25 08:20:26;;;;;;;;;;;16.80;34.10;;;;;;5084566;27;42883;-73
2022/03/25 08:22:52;;;;;;;;;;;16.90;34.20;;;;;;5087171;28;43134;-72
2022/03/25 08:28:01;;;;;;;;;;;17.10;33.90;;;;;;5088951;28;42985;-75
2022/03/25 08:30:27;;;;;;;;;;;17.00;34.40;;;;;;5088215;28;42894;-72
2022/03/25 08:32:53;;;;;;;;;;;17.10;34.60;;;;;;5088026;28;42762;-77
2022/03/25 08:35:18;;;;;;;;;;;16.90;34.00;;;;;;5087878;28;43110;-75
2022/03/25 08:37:44;;;;;;;;;;;17.00;33.70;;;;;;5087913;28;42900;-74
2022/03/25 08:40:10;;;;;;;;;;;17.20;34.00;;;;;;5087817;28;43016;-73
2022/03/25 08:42:35;;;;;;;;;;;17.00;34.00;;;;;;5087503;28;43008;-75
2022/03/25 08:45:01;;;;;;;;;;;17.10;33.90;;;;;;5086445;28;43019;-73
2022/03/25 08:47:26;;;;;;;;;;;17.10;33.60;;;;;;5088002;28;42988;-74
2022/03/25 08:49:52;;;;;;;;;;;17.10;33.90;;;;;;5087638;28;42832;-73
2022/03/25 08:52:20;;;;;;;;;;;17.10;34.00;;;;;;5087881;28;43054;-73
2022/03/25 08:54:47;;;;;;;;;;;17.10;34.50;;;;;;5087468;28;42850;-73
2022/03/25 08:57:12;;;;;;;;;;;17.00;34.40;;;;;;5088175;28;42876;-80
2022/03/25 08:59:38;;;;;;;;;;;17.10;34.60;;;;;;5069329;28;43482;-74
2022/03/25 09:02:03;;;;;;;;;;;17.10;34.40;;;;;;5087382;28;42783;-79
2022/03/25 09:04:30;;;;;;;;;;;17.30;33.80;;;;;;5087330;28;43199;-72
2022/03/25 09:06:55;;;;;;;;;;;17.20;33.90;;;;;;5087696;28;43020;-76
2022/03/25 09:09:21;;;;;;;;;;;17.20;33.70;;;;;;5087487;28;43184;-78
2022/03/25 09:11:47;;;;;;;;;;;17.10;34.30;;;;;;5087611;28;42960;-74
2022/03/25 09:14:14;;;;;;;;;;;17.20;33.90;;;;;;5087142;28;43476;-77
2022/03/25 09:16:40;;;;;;;;;;;17.20;34.10;;;;;;5087276;28;42845;-77
2022/03/25 09:19:05;;;;;;;;;;;17.40;34.40;;;;;;5087079;28;44258;-75
2022/03/25 09:21:31;;;;;;;;;;;17.20;34.00;;;;;;5087049;28;43268;-72
2022/03/25 09:23:57;;;;;;;;;;;17.30;34.60;;;;;;5086557;28;44052;-73
2022/03/25 09:26:24;;;;;;;;;;;17.40;34.00;;;;;;5087279;28;42860;-72
2022/03/25 09:28:50;;;;;;;;;;;17.50;33.80;;;;;;5087016;28;42907;-73
2022/03/25 09:31:16;;;;;;;;;;;17.50;34.00;;;;;;5087316;28;43056;-80
2022/03/25 09:33:41;;;;;;;;;;;17.30;33.40;;;;;;5086824;27;43018;-74
2022/03/25 09:36:07;;;;;;;;;;;17.40;34.00;;;;;;5087556;28;42881;-78
2022/03/25 09:38:33;;;;;;;;;;;17.30;33.70;;;;;;5087355;28;43426;-75
2022/03/25 09:40:59;;;;;;;;;;;16.40;32.60;;;;;;5087295;28;43462;-80
2022/03/25 09:43:24;;;;;;;;;;;17.30;33.00;;;;;;5086914;28;43545;-74
2022/03/25 09:45:50;;;;;;;;;;;17.40;33.00;;;;;;5086697;28;43019;-81
2022/03/25 09:48:15;;;;;;;;;;;17.40;33.10;;;;;;5087134;28;43011;-74
2022/03/25 09:50:41;;;;;;;;;;;17.40;33.10;;;;;;5086727;28;42803;-81
2022/03/25 09:53:07;;;;;;;;;;;17.40;32.60;;;;;;5087033;28;42929;-77
2022/03/25 09:55:34;;;;;;;;;;;17.30;33.10;;;;;;5086802;28;42952;-79
2022/03/25 09:58:00;;;;;;;;;;;17.40;33.00;;;;;;5086323;28;42825;-77
2022/03/25 10:00:25;;;;;;;;;;;17.40;31.50;;;;;;5087181;28;42892;-75
2022/03/25 10:02:51;;;;;;;;;;;17.50;31.90;;;;;;5086644;28;42942;-80
2022/03/25 10:05:17;;;;;;;;;;;17.50;32.50;;;;;;5086994;28;42975;-75
2022/03/25 10:07:44;;;;;;;;;;;17.10;32.20;;;;;;5086837;28;43732;-79
2022/03/25 10:10:11;;;;;;;;;;;17.40;32.50;;;;;;5086705;28;43003;-75
2022/03/25 10:12:37;;;;;;;;;;;17.40;32.30;;;;;;5086003;28;43090;-80
2022/03/25 10:15:16;;;;;;;;;;;17.50;32.70;;;;;;5086424;28;42984;-79
2022/03/25 10:17:58;;;;;;;;;;;17.40;32.00;;;;;;5086549;28;43858;-78
2022/03/25 10:20:25;;;;;;;;;;;17.50;31.00;;;;;;5086538;28;43028;-80
2022/03/25 10:22:56;;;;;;;;;;;17.60;32.70;;;;;;5086365;28;42814;-74
2022/03/25 10:25:39;;;;;;;;;;;17.50;31.00;;;;;;5086751;28;42997;-73
2022/03/25 10:28:05;;;;;;;;;;;17.30;31.20;;;;;;5085469;28;42945;-74
2022/03/25 10:30:38;;;;;;;;;;;17.40;31.90;;;;;;5086362;28;42923;-74
2022/03/25 10:33:13;;;;;;;;;;;17.60;31.90;;;;;;5085868;28;42921;-80
2022/03/25 10:36:14;;;;;;;;;;;17.60;31.10;;;;;;5086384;28;42961;-74
2022/03/25 10:38:57;;;;;;;;;;;17.50;32.10;;;;;;5042743;28;43211;-78
2022/03/25 10:41:36;;;;;;;;;;;17.60;31.40;;;;;;5042218;28;43089;-75
2022/03/25 10:44:04;;;;;;;;;;;17.60;32.70;;;;;;5041725;28;43482;-81
2022/03/25 10:46:30;;;;;;;;;;;17.50;32.80;;;;;;5042872;28;43228;-73
2022/03/25 10:48:55;;;;;;;;;;;17.60;32.90;;;;;;5042779;28;43329;-75
2022/03/25 10:51:21;;;;;;;;;;;17.70;32.40;;;;;;5043331;28;43023;-73
2022/03/25 10:53:54;;;;;;;;;;;17.60;31.70;;;;;;5043100;28;43743;-73
2022/03/25 10:56:20;;;;;;;;;;;17.60;31.30;;;;;;5043356;28;43270;-74
2022/03/25 10:58:55;;;;;;;;;;;17.70;31.80;;;;;;5042672;28;43013;-74
2022/03/25 11:01:21;;;;;;;;;;;17.60;31.80;;;;;;5042555;28;42850;-73
2022/03/25 11:03:50;;;;;;;;;;;17.60;31.80;;;;;;5042157;28;43575;-73
2022/03/25 11:06:18;;;;;;;;;;;17.70;31.80;;;;;;5042777;28;42979;-74
2022/03/25 11:08:44;;;;;;;;;;;17.70;31.20;;;;;;5042692;28;43017;-73
2022/03/25 11:11:10;;;;;;;;;;;17.70;32.00;;;;;;5042972;28;42990;-73
2022/03/25 11:13:36;;;;;;;;;;;17.50;31.30;;;;;;5080762;28;42923;-74
2022/03/25 11:16:02;;;;;;;;;;;17.60;31.40;;;;;;5085010;28;42879;-73
2022/03/25 11:18:28;;;;;;;;;;;17.50;31.60;;;;;;5085427;28;44359;-73
2022/03/25 11:20:56;;;;;;;;;;;17.60;31.50;;;;;;5085554;28;42909;-73
2022/03/25 11:23:29;;;;;;;;;;;17.80;31.30;;;;;;5085634;28;42904;-74
2022/03/25 11:25:56;;;;;;;;;;;17.80;31.80;;;;;;5084745;28;42890;-73
2022/03/25 11:28:29;;;;;;;;;;;17.70;31.60;;;;;;5084410;28;43485;-73
2022/03/25 11:30:59;;;;;;;;;;;17.70;31.00;;;;;;5084754;28;42968;-75
2022/03/25 11:33:25;;;;;;;;;;;17.70;31.70;;;;;;5085080;28;43183;-75
2022/03/25 11:36:10;;;;;;;;;;;17.70;32.40;;;;;;5084973;28;42790;-79
2022/03/25 11:38:36;;;;;;;;;;;17.70;32.20;;;;;;5084126;28;43476;-75
2022/03/25 11:41:20;;;;;;;;;;;17.70;32.40;;;;;;5085008;28;42854;-76
2022/03/25 11:44:05;;;;;;;;;;;17.70;32.50;;;;;;5084852;28;43703;-78
2022/03/25 11:46:31;;;;;;;;;;;17.80;32.20;;;;;;5084398;28;43007;-75
2022/03/25 11:49:16;;;;;;;;;;;17.70;32.70;;;;;;5084432;28;43706;-75
2022/03/25 11:51:42;;;;;;;;;;;17.90;32.60;;;;;;5066425;28;42922;-78
2022/03/25 11:54:26;;;;;;;;;;;17.70;32.60;;;;;;5076226;28;42765;-77
2022/03/25 11:56:51;;;;;;;;;;;17.80;32.70;;;;;;5067914;28;42955;-79
2022/03/25 11:59:17;;;;;;;;;;;17.80;33.60;;;;;;5068255;28;43463;-75
2022/03/25 12:01:42;;;;;;;;;;;17.80;33.40;;;;;;5073015;28;42950;-79
2022/03/25 12:04:08;;;;;;;;;;;17.90;32.20;;;;;;5088859;28;42928;-77
2022/03/25 12:06:54;;;;;;;;;;;17.90;32.00;;;;;;5088683;28;43333;-76
2022/03/25 12:09:19;;;;;;;;;;;17.90;32.10;;;;;;5071311;28;43108;-77
2022/03/25 12:11:52;;;;;;;;;;;17.90;32.30;;;;;;5088636;28;42927;-75
2022/03/25 12:14:18;;;;;;;;;;;17.90;30.80;;;;;;5088368;28;43094;-75
2022/03/25 12:16:47;;;;;;;;;;;18.00;31.10;;;;;;5082985;28;42945;-75
2022/03/25 12:19:31;;;;;;;;;;;17.80;30.40;;;;;;5088184;28;42826;-80
2022/03/25 12:21:56;;;;;;;;;;;17.90;31.40;;;;;;5090795;28;43013;-74
2022/03/25 12:24:22;;;;;;;;;;;17.90;31.90;;;;;;5090249;28;43046;-74
2022/03/25 12:26:58;;;;;;;;;;;17.90;31.80;;;;;;5087206;28;42940;-78
2022/03/25 12:29:33;;;;;;;;;;;18.00;31.00;;;;;;5087070;28;43631;-74
2022/03/25 12:32:06;;;;;;;;;;;17.90;30.20;;;;;;5086915;28;42832;-73
2022/03/25 12:34:44;;;;;;;;;;;16.90;30.00;;;;;;5084291;28;43428;-73
2022/03/25 12:37:10;;;;;;;;;;;18.20;31.10;;;;;;5084522;28;43048;-76
2022/03/25 12:39:36;;;;;;;;;;;17.90;31.40;;;;;;5086993;28;42913;-77
2022/03/25 12:42:09;;;;;;;;;;;17.80;31.70;;;;;;5081068;28;42866;-73
2022/03/25 12:44:35;;;;;;;;;;;18.00;30.70;;;;;;5073622;28;43414;-74
2022/03/25 12:47:01;;;;;;;;;;;18.00;30.80;;;;;;5076343;28;42942;-73
2022/03/25 12:49:28;;;;;;;;;;;17.90;30.20;;;;;;5077190;28;43650;-72
2022/03/25 12:51:57;;;;;;;;;;;18.00;30.60;;;;;;5075925;28;42944;-75
2022/03/25 12:54:23;;;;;;;;;;;17.80;30.20;;;;;;5076041;28;43366;-77
2022/03/25 12:57:02;;;;;;;;;;;18.00;31.70;;;;;;5059227;28;43040;-77
2022/03/25 12:59:28;;;;;;;;;;;17.90;31.50;;;;;;5058716;28;45527;-73
2022/03/25 13:01:53;;;;;;;;;;;17.90;31.50;;;;;;5066901;28;42820;-74
2022/03/25 13:04:28;;;;;;;;;;;18.00;31.60;;;;;;5066971;28;43637;-73
2022/03/25 13:07:08;;;;;;;;;;;18.00;31.10;;;;;;5063670;28;42995;-77
2022/03/25 13:09:33;;;;;;;;;;;18.00;30.90;;;;;;5064095;28;42990;-78
2022/03/25 13:12:02;;;;;;;;;;;17.90;31.00;;;;;;5066974;28;43054;-77
2022/03/25 13:14:30;;;;;;;;;;;18.00;31.40;;;;;;5058236;28;43006;-74
2022/03/25 13:16:56;;;;;;;;;;;18.00;31.30;;;;;;5066552;28;43108;-73
2022/03/25 13:19:31;;;;;;;;;;;18.10;31.10;;;;;;5063094;28;43013;-77
2022/03/25 13:22:11;;;;;;;;;;;17.80;30.20;;;;;;5065300;28;43304;-78
2022/03/25 13:24:56;;;;;;;;;;;17.90;31.10;;;;;;5065277;28;42943;-77
2022/03/25 13:27:22;;;;;;;;;;;18.00;29.90;;;;;;5062259;28;43052;-75
2022/03/25 13:29:48;;;;;;;;;;;18.10;30.50;;;;;;5065402;28;43604;-76
2022/03/25 13:32:33;;;;;;;;;;;18.00;31.20;;;;;;5065393;28;43011;-78
2022/03/25 13:35:06;;;;;;;;;;;18.20;30.50;;;;;;5065867;28;43000;-77
2022/03/25 13:37:32;;;;;;;;;;;18.00;30.00;;;;;;5075770;28;42811;-74
2022/03/25 13:39:58;;;;;;;;;;;18.10;30.10;;;;;;5069632;28;43538;-72
2022/03/25 13:42:24;;;;;;;;;;;;;;;;;;5076424;28;43171;-77
2022/03/25 13:44:50;;;;;;;;;;;18.10;29.50;;;;;;5085914;28;42971;-75
2022/03/25 13:47:15;;;;;;;;;;;18.00;30.40;;;;;;5086365;28;42923;-78
2022/03/25 13:49:41;;;;;;;;;;;18.00;30.40;;;;;;5086123;28;43308;-78
2022/03/25 13:52:07;;;;;;;;;;;18.20;30.30;;;;;;5086400;28;42880;-76
2022/03/25 13:54:32;;;;;;;;;;;17.90;30.00;;;;;;5086694;28;42839;-73
2022/03/25 13:57:04;;;;;;;;;;;17.90;30.30;;;;;;5086343;28;42976;-78
2022/03/25 13:59:34;;;;;;;;;;;18.30;29.90;;;;;;5086467;28;43181;-79
2022/03/25 14:02:00;;;;;;;;;;;18.00;30.90;;;;;;5083899;28;42883;-75
2022/03/25 14:04:29;;;;;;;;;;;18.10;30.40;;;;;;5086390;28;42892;-75
2022/03/25 14:06:58;;;;;;;;;;;18.20;30.40;;;;;;5086363;28;42897;-73
2022/03/25 14:09:27;;;;;;;;;;;18.10;29.90;;;;;;5086401;28;42944;-73
2022/03/25 14:11:53;;;;;;;;;;;18.20;30.80;;;;;;5083851;28;42879;-75
2022/03/25 14:14:34;;;;;;;;;;;18.10;30.80;;;;;;5086133;28;42969;-72
2022/03/25 14:17:00;;;;;;;;;;;18.10;30.90;;;;;;5083853;28;42693;-77
2022/03/25 14:19:26;;;;;;;;;;;18.10;30.90;;;;;;5084400;27;42924;-75
2022/03/25 14:21:53;;;;;;;;;;;18.20;31.00;;;;;;5086246;28;42891;-76